sensor_id;sensor_type;location;lat;lon;timestamp;pressure;altitude;pressure_sealevel;temperature;humidity
79250;BME280;68679;51.030;7.584;2023-11-21T00:00:54;98333.84;;;7.30;79.70
79250;BME280;68679;51.030;7.584;2023-11-21T00:03:19;98335.66;;;7.30;79.46
79250;BME280;68679;51.030;7.584;2023-11-21T00:05:45;98340.59;;;7.31;79.59
79250;BME280;68679;51.030;7.584;2023-11-21T00:08:10;98344.78;;;7.32;80.12
79250;BME280;68679;51.030;7.584;2023-11-21T00:10:35;98342.94;;;7.33;79.78
79250;BME280;68679;51.030;7.584;2023-11-21T00:13:03;98344.25;;;7.30;79.62
79250;BME280;68679;51.030;7.584;2023-11-21T00:15:28;98336.72;;;7.29;79.44
79250;BME280;68679;51.030;7.584;2023-11-21T00:17:53;98332.28;;;7.29;79.45
79250;BME280;68679;51.030;7.584;2023-11-21T00:20:19;98346.09;;;7.30;79.84
79250;BME280;68679;51.030;7.584;2023-11-21T00:22:44;98344.53;;;7.29;79.71
79250;BME280;68679;51.030;7.584;2023-11-21T00:25:10;98340.34;;;7.28;79.53
79250;BME280;68679;51.030;7.584;2023-11-21T00:27:36;98349.22;;;7.26;79.56
79250;BME280;68679;51.030;7.584;2023-11-21T00:30:02;98340.63;;;7.26;79.69
79250;BME280;68679;51.030;7.584;2023-11-21T00:32:29;98336.19;;;7.26;79.88
79250;BME280;68679;51.030;7.584;2023-11-21T00:34:54;98347.16;;;7.23;80.02
79250;BME280;68679;51.030;7.584;2023-11-21T00:37:20;98345.31;;;7.24;79.36
79250;BME280;68679;51.030;7.584;2023-11-21T00:39:45;98346.38;;;7.23;79.32
79250;BME280;68679;51.030;7.584;2023-11-21T00:42:10;98356.03;;;7.22;79.68
79250;BME280;68679;51.030;7.584;2023-11-21T00:44:38;98350.03;;;7.22;79.54
79250;BME280;68679;51.030;7.584;2023-11-21T00:47:03;98352.88;;;7.20;79.51
79250;BME280;68679;51.030;7.584;2023-11-21T00:49:28;98353.66;;;7.21;79.64
79250;BME280;68679;51.030;7.584;2023-11-21T00:51:54;98357.06;;;7.21;79.77
79250;BME280;68679;51.030;7.584;2023-11-21T00:54:19;98359.66;;;7.21;79.76
79250;BME280;68679;51.030;7.584;2023-11-21T00:56:44;98359.94;;;7.20;79.50
79250;BME280;68679;51.030;7.584;2023-11-21T00:59:12;98362.03;;;7.23;79.75
79250;BME280;68679;51.030;7.584;2023-11-21T01:01:37;98364.88;;;7.21;79.76
79250;BME280;68679;51.030;7.584;2023-11-21T01:04:03;98370.91;;;7.22;79.76
79250;BME280;68679;51.030;7.584;2023-11-21T01:06:28;98364.88;;;7.21;79.55
79250;BME280;68679;51.030;7.584;2023-11-21T01:08:53;98366.97;;;7.19;79.83
79250;BME280;68679;51.030;7.584;2023-11-21T01:11:19;98368.81;;;7.19;79.67
79250;BME280;68679;51.030;7.584;2023-11-21T01:13:45;98376.63;;;7.19;79.52
79250;BME280;68679;51.030;7.584;2023-11-21T01:16:10;98376.34;;;7.20;79.80
79250;BME280;68679;51.030;7.584;2023-11-21T01:18:36;98389.16;;;7.22;79.95
79250;BME280;68679;51.030;7.584;2023-11-21T01:21:02;98387.84;;;7.19;79.91
79250;BME280;68679;51.030;7.584;2023-11-21T01:23:27;98396.44;;;7.20;79.71
79250;BME280;68679;51.030;7.584;2023-11-21T01:25:52;98387.56;;;7.16;79.61
79250;BME280;68679;51.030;7.584;2023-11-21T01:28:18;98399.31;;;7.18;79.72
79250;BME280;68679;51.030;7.584;2023-11-21T01:30:43;98401.66;;;7.20;79.89
79250;BME280;68679;51.030;7.584;2023-11-21T01:33:09;98399.81;;;7.20;79.91
79250;BME280;68679;51.030;7.584;2023-11-21T01:35:35;98398.00;;;7.21;79.77
79250;BME280;68679;51.030;7.584;2023-11-21T01:38:00;98397.47;;;7.19;79.75
79250;BME280;68679;51.030;7.584;2023-11-21T01:40:25;98399.03;;;7.20;79.99
79250;BME280;68679;51.030;7.584;2023-11-21T01:42:52;98391.50;;;7.18;79.66
79250;BME280;68679;51.030;7.584;2023-11-21T01:45:18;98395.66;;;7.19;79.80
79250;BME280;68679;51.030;7.584;2023-11-21T01:47:44;98388.59;;;7.20;80.03
79250;BME280;68679;51.030;7.584;2023-11-21T01:50:14;98392.78;;;7.16;79.82
79250;BME280;68679;51.030;7.584;2023-11-21T01:52:39;98391.50;;;7.18;80.10
79250;BME280;68679;51.030;7.584;2023-11-21T01:55:07;98388.63;;;7.15;79.72
79250;BME280;68679;51.030;7.584;2023-11-21T01:57:33;98387.34;;;7.12;79.56
79250;BME280;68679;51.030;7.584;2023-11-21T02:00:01;98402.19;;;7.12;79.62
79250;BME280;68679;51.030;7.584;2023-11-21T02:02:36;98402.19;;;7.12;79.58
79250;BME280;68679;51.030;7.584;2023-11-21T02:05:01;98394.09;;;7.13;79.72
79250;BME280;68679;51.030;7.584;2023-11-21T02:07:27;98398.03;;;7.11;79.53
79250;BME280;68679;51.030;7.584;2023-11-21T02:09:52;98396.19;;;7.11;79.69
79250;BME280;68679;51.030;7.584;2023-11-21T02:12:17;98404.03;;;7.11;79.97
79250;BME280;68679;51.030;7.584;2023-11-21T02:14:42;98402.47;;;7.10;79.71
79250;BME280;68679;51.030;7.584;2023-11-21T02:17:08;98400.88;;;7.09;79.76
79250;BME280;68679;51.030;7.584;2023-11-21T02:19:33;98411.31;;;7.09;79.75
79250;BME280;68679;51.030;7.584;2023-11-21T02:21:59;98412.63;;;7.07;79.88
79250;BME280;68679;51.030;7.584;2023-11-21T02:24:28;98415.75;;;7.09;79.91
79250;BME280;68679;51.030;7.584;2023-11-21T02:26:54;98420.72;;;7.10;79.92
79250;BME280;68679;51.030;7.584;2023-11-21T02:29:20;98420.16;;;7.08;79.91
79250;BME280;68679;51.030;7.584;2023-11-21T02:31:53;98432.44;;;7.08;79.83
79250;BME280;68679;51.030;7.584;2023-11-21T02:34:20;98429.03;;;7.07;79.77
79250;BME280;68679;51.030;7.584;2023-11-21T02:36:46;98427.72;;;7.10;80.10
79250;BME280;68679;51.030;7.584;2023-11-21T02:39:14;98432.44;;;7.08;79.76
79250;BME280;68679;51.030;7.584;2023-11-21T02:41:40;98433.22;;;7.08;80.00
79250;BME280;68679;51.030;7.584;2023-11-21T02:44:06;98439.47;;;7.07;79.76
79250;BME280;68679;51.030;7.584;2023-11-21T02:46:35;98443.63;;;7.08;79.95
79250;BME280;68679;51.030;7.584;2023-11-21T02:49:01;98441.81;;;7.09;80.13
79250;BME280;68679;51.030;7.584;2023-11-21T02:51:27;98438.69;;;7.12;80.05
79250;BME280;68679;51.030;7.584;2023-11-21T02:53:52;98441.03;;;7.08;79.96
79250;BME280;68679;51.030;7.584;2023-11-21T02:56:17;98443.38;;;7.10;80.14
79250;BME280;68679;51.030;7.584;2023-11-21T02:58:45;98445.97;;;7.10;80.13
79250;BME280;68679;51.030;7.584;2023-11-21T03:01:10;98450.16;;;7.11;80.19
79250;BME280;68679;51.030;7.584;2023-11-21T03:03:36;98445.19;;;7.09;79.96
79250;BME280;68679;51.030;7.584;2023-11-21T03:06:04;98442.34;;;7.11;79.90
79250;BME280;68679;51.030;7.584;2023-11-21T03:08:29;98440.50;;;7.11;80.03
79250;BME280;68679;51.030;7.584;2023-11-21T03:10:54;98440.75;;;7.10;79.84
79250;BME280;68679;51.030;7.584;2023-11-21T03:13:21;98447.03;;;7.09;79.87
79250;BME280;68679;51.030;7.584;2023-11-21T03:15:46;98443.63;;;7.08;79.79
79250;BME280;68679;51.030;7.584;2023-11-21T03:18:12;98437.91;;;7.06;80.03
79250;BME280;68679;51.030;7.584;2023-11-21T03:20:38;98440.50;;;7.06;79.89
79250;BME280;68679;51.030;7.584;2023-11-21T03:23:03;98446.78;;;7.05;79.96
79250;BME280;68679;51.030;7.584;2023-11-21T03:25:30;98452.50;;;7.07;79.83
79250;BME280;68679;51.030;7.584;2023-11-21T03:27:56;98456.16;;;7.06;80.05
79250;BME280;68679;51.030;7.584;2023-11-21T03:30:21;98466.59;;;7.06;79.92
79250;BME280;68679;51.030;7.584;2023-11-21T03:32:46;98463.72;;;7.03;80.01
79250;BME280;68679;51.030;7.584;2023-11-21T03:35:12;98461.63;;;7.05;80.02
79250;BME280;68679;51.030;7.584;2023-11-21T03:37:38;98467.38;;;7.07;79.92
79250;BME280;68679;51.030;7.584;2023-11-21T03:40:07;98466.84;;;7.05;80.15
79250;BME280;68679;51.030;7.584;2023-11-21T03:42:33;98466.84;;;7.05;80.30
79250;BME280;68679;51.030;7.584;2023-11-21T03:44:58;98479.88;;;7.05;79.90
79250;BME280;68679;51.030;7.584;2023-11-21T03:47:24;98491.34;;;7.04;79.96
79250;BME280;68679;51.030;7.584;2023-11-21T03:49:49;98487.72;;;7.05;79.95
79250;BME280;68679;51.030;7.584;2023-11-21T03:52:14;98490.31;;;7.05;80.20
79250;BME280;68679;51.030;7.584;2023-11-21T03:54:40;98489.78;;;7.03;79.86
79250;BME280;68679;51.030;7.584;2023-11-21T03:57:05;98489.53;;;7.04;80.31
79250;BME280;68679;51.030;7.584;2023-11-21T03:59:30;98491.34;;;7.04;79.99
79250;BME280;68679;51.030;7.584;2023-11-21T04:01:56;98498.91;;;7.05;80.03
79250;BME280;68679;51.030;7.584;2023-11-21T04:04:22;98497.09;;;7.06;80.10
79250;BME280;68679;51.030;7.584;2023-11-21T04:06:47;98501.53;;;7.05;80.03
79250;BME280;68679;51.030;7.584;2023-11-21T04:09:12;98495.53;;;7.05;80.12
79250;BME280;68679;51.030;7.584;2023-11-21T04:11:38;98493.16;;;7.03;80.12
79250;BME280;68679;51.030;7.584;2023-11-21T04:14:03;98505.94;;;7.05;80.15
79250;BME280;68679;51.030;7.584;2023-11-21T04:16:28;98509.56;;;7.04;80.12
79250;BME280;68679;51.030;7.584;2023-11-21T04:18:53;98517.94;;;7.06;80.27
79250;BME280;68679;51.030;7.584;2023-11-21T04:21:19;98521.59;;;7.05;80.02
79250;BME280;68679;51.030;7.584;2023-11-21T04:23:44;98528.38;;;7.06;80.13
79250;BME280;68679;51.030;7.584;2023-11-21T04:26:09;98522.59;;;7.04;80.17
79250;BME280;68679;51.030;7.584;2023-11-21T04:28:34;98526.25;;;7.03;79.94
79250;BME280;68679;51.030;7.584;2023-11-21T04:31:00;98528.63;;;7.04;80.21
79250;BME280;68679;51.030;7.584;2023-11-21T04:33:25;98528.63;;;7.04;80.10
79250;BME280;68679;51.030;7.584;2023-11-21T04:35:50;98533.56;;;7.06;80.15
79250;BME280;68679;51.030;7.584;2023-11-21T04:38:16;98544.00;;;7.06;80.14
79250;BME280;68679;51.030;7.584;2023-11-21T04:40:41;98539.06;;;7.04;80.11
79250;BME280;68679;51.030;7.584;2023-11-21T04:43:07;98548.69;;;7.04;80.24
79250;BME280;68679;51.030;7.584;2023-11-21T04:45:32;98539.06;;;7.04;80.11
79250;BME280;68679;51.030;7.584;2023-11-21T04:47:57;98540.84;;;7.04;80.08
79250;BME280;68679;51.030;7.584;2023-11-21T04:50:23;98541.41;;;7.06;80.25
79250;BME280;68679;51.030;7.584;2023-11-21T04:52:48;98552.09;;;7.04;80.11
79250;BME280;68679;51.030;7.584;2023-11-21T04:55:13;98549.50;;;7.04;80.32
79250;BME280;68679;51.030;7.584;2023-11-21T04:57:40;98551.03;;;7.05;80.25
79250;BME280;68679;51.030;7.584;2023-11-21T05:00:07;98551.81;;;7.06;80.06
79250;BME280;68679;51.030;7.584;2023-11-21T05:02:32;98556.25;;;7.05;80.22
79250;BME280;68679;51.030;7.584;2023-11-21T05:04:59;98553.66;;;7.05;80.30
79250;BME280;68679;51.030;7.584;2023-11-21T05:07:25;98553.66;;;7.05;80.37
79250;BME280;68679;51.030;7.584;2023-11-21T05:09:54;98552.31;;;7.03;80.11
79250;BME280;68679;51.030;7.584;2023-11-21T05:12:21;98553.88;;;7.04;80.04
79250;BME280;68679;51.030;7.584;2023-11-21T05:14:47;98557.03;;;7.06;80.14
79250;BME280;68679;51.030;7.584;2023-11-21T05:17:13;98554.94;;;7.03;80.13
79250;BME280;68679;51.030;7.584;2023-11-21T05:19:39;98559.91;;;7.04;80.21
79250;BME280;68679;51.030;7.584;2023-11-21T05:22:05;98553.09;;;7.03;79.99
79250;BME280;68679;51.030;7.584;2023-11-21T05:24:31;98562.75;;;7.03;80.38
79250;BME280;68679;51.030;7.584;2023-11-21T05:26:56;98562.75;;;7.03;80.11
79250;BME280;68679;51.030;7.584;2023-11-21T05:29:22;98568.75;;;7.03;80.10
79250;BME280;68679;51.030;7.584;2023-11-21T05:31:47;98570.34;;;7.04;80.21
79250;BME280;68679;51.030;7.584;2023-11-21T05:34:12;98568.75;;;7.03;80.25
79250;BME280;68679;51.030;7.584;2023-11-21T05:36:38;98573.72;;;7.05;80.39
79250;BME280;68679;51.030;7.584;2023-11-21T05:39:03;98577.13;;;7.05;80.38
79250;BME280;68679;51.030;7.584;2023-11-21T05:41:29;98577.34;;;7.04;80.44
79250;BME280;68679;51.030;7.584;2023-11-21T05:43:55;98576.34;;;7.05;80.64
79250;BME280;68679;51.030;7.584;2023-11-21T05:46:20;98583.59;;;7.03;80.22
79250;BME280;68679;51.030;7.584;2023-11-21T05:48:45;98583.38;;;7.04;80.15
79250;BME280;68679;51.030;7.584;2023-11-21T05:51:11;98587.00;;;7.03;80.14
79250;BME280;68679;51.030;7.584;2023-11-21T05:53:37;98592.22;;;7.03;80.37
79250;BME280;68679;51.030;7.584;2023-11-21T05:56:03;98602.63;;;7.03;80.38
79250;BME280;68679;51.030;7.584;2023-11-21T05:58:29;98599.00;;;7.04;80.30
79250;BME280;68679;51.030;7.584;2023-11-21T06:00:54;98606.03;;;7.04;80.15
79250;BME280;68679;51.030;7.584;2023-11-21T06:03:19;98605.00;;;7.05;80.29
79250;BME280;68679;51.030;7.584;2023-11-21T06:05:45;98607.84;;;7.03;80.37
79250;BME280;68679;51.030;7.584;2023-11-21T06:08:10;98614.66;;;7.04;80.35
79250;BME280;68679;51.030;7.584;2023-11-21T06:10:35;98618.81;;;7.05;80.56
79250;BME280;68679;51.030;7.584;2023-11-21T06:13:01;98610.22;;;7.05;80.23
79250;BME280;68679;51.030;7.584;2023-11-21T06:15:26;98612.81;;;7.05;80.72
79250;BME280;68679;51.030;7.584;2023-11-21T06:17:51;98613.84;;;7.04;80.63
79250;BME280;68679;51.030;7.584;2023-11-21T06:20:18;98620.88;;;7.03;80.36
79250;BME280;68679;51.030;7.584;2023-11-21T06:22:45;98627.91;;;7.03;80.34
79250;BME280;68679;51.030;7.584;2023-11-21T06:25:12;98633.41;;;7.01;80.45
79250;BME280;68679;51.030;7.584;2023-11-21T06:27:42;98637.56;;;7.02;80.27
79250;BME280;68679;51.030;7.584;2023-11-21T06:30:07;98646.44;;;7.01;80.40
79250;BME280;68679;51.030;7.584;2023-11-21T06:32:38;98648.75;;;6.97;80.53
79250;BME280;68679;51.030;7.584;2023-11-21T06:35:05;98649.56;;;6.98;80.21
79250;BME280;68679;51.030;7.584;2023-11-21T06:37:31;98654.50;;;6.94;80.16
79250;BME280;68679;51.030;7.584;2023-11-21T06:39:57;98654.50;;;6.94;80.46
79250;BME280;68679;51.030;7.584;2023-11-21T06:42:23;98655.53;;;6.93;80.36
79250;BME280;68679;51.030;7.584;2023-11-21T06:44:49;98661.53;;;6.94;80.32
79250;BME280;68679;51.030;7.584;2023-11-21T06:47:16;98656.59;;;6.92;80.29
79250;BME280;68679;51.030;7.584;2023-11-21T06:49:43;98659.44;;;6.91;80.41
79250;BME280;68679;51.030;7.584;2023-11-21T06:52:08;98663.34;;;6.88;80.37
79250;BME280;68679;51.030;7.584;2023-11-21T06:54:34;98667.50;;;6.89;80.08
79250;BME280;68679;51.030;7.584;2023-11-21T06:57:00;98665.94;;;6.88;80.40
79250;BME280;68679;51.030;7.584;2023-11-21T06:59:25;98673.25;;;6.86;80.20
79250;BME280;68679;51.030;7.584;2023-11-21T07:01:51;98675.06;;;6.86;80.14
79250;BME280;68679;51.030;7.584;2023-11-21T07:04:16;98679.72;;;6.84;80.22
79250;BME280;68679;51.030;7.584;2023-11-21T07:06:41;98685.19;;;6.82;80.26
79250;BME280;68679;51.030;7.584;2023-11-21T07:09:08;98690.41;;;6.82;80.27
79250;BME280;68679;51.030;7.584;2023-11-21T07:11:35;98697.44;;;6.82;80.20
79250;BME280;68679;51.030;7.584;2023-11-21T07:14:00;98695.88;;;6.81;80.18
79250;BME280;68679;51.030;7.584;2023-11-21T07:16:33;98700.31;;;6.80;80.24
79250;BME280;68679;51.030;7.584;2023-11-21T07:18:59;98702.94;;;6.80;80.39
79250;BME280;68679;51.030;7.584;2023-11-21T07:21:25;98710.97;;;6.79;80.48
79250;BME280;68679;51.030;7.584;2023-11-21T07:23:50;98715.94;;;6.80;80.19
79250;BME280;68679;51.030;7.584;2023-11-21T07:26:15;98730.00;;;6.79;80.40
79250;BME280;68679;51.030;7.584;2023-11-21T07:28:41;98726.13;;;6.82;80.45
79250;BME280;68679;51.030;7.584;2023-11-21T07:31:06;98728.19;;;6.80;80.33
79250;BME280;68679;51.030;7.584;2023-11-21T07:33:31;98729.22;;;6.79;80.12
79250;BME280;68679;51.030;7.584;2023-11-21T07:35:56;98732.38;;;6.81;80.41
79250;BME280;68679;51.030;7.584;2023-11-21T07:38:22;98735.50;;;6.83;80.56
79250;BME280;68679;51.030;7.584;2023-11-21T07:40:48;98735.50;;;6.83;80.37
79250;BME280;68679;51.030;7.584;2023-11-21T07:43:13;98743.84;;;6.85;80.34
79250;BME280;68679;51.030;7.584;2023-11-21T07:45:38;98749.03;;;6.85;80.43
79250;BME280;68679;51.030;7.584;2023-11-21T07:48:04;98745.44;;;6.86;80.41
79250;BME280;68679;51.030;7.584;2023-11-21T07:50:30;98749.03;;;6.85;80.55
79250;BME280;68679;51.030;7.584;2023-11-21T07:52:55;98756.09;;;6.84;80.49
79250;BME280;68679;51.030;7.584;2023-11-21T07:55:21;98761.06;;;6.86;80.65
79250;BME280;68679;51.030;7.584;2023-11-21T07:57:46;98765.72;;;6.84;80.23
79250;BME280;68679;51.030;7.584;2023-11-21T08:00:12;98764.16;;;6.83;80.37
79250;BME280;68679;51.030;7.584;2023-11-21T08:02:40;98764.94;;;6.83;80.46
79250;BME280;68679;51.030;7.584;2023-11-21T08:05:11;98765.72;;;6.84;80.38
79250;BME280;68679;51.030;7.584;2023-11-21T08:07:36;98770.69;;;6.85;80.43
79250;BME280;68679;51.030;7.584;2023-11-21T08:10:02;98776.16;;;6.84;80.10
79250;BME280;68679;51.030;7.584;2023-11-21T08:12:28;98775.38;;;6.83;80.53
79250;BME280;68679;51.030;7.584;2023-11-21T08:14:53;98776.16;;;6.84;80.37
79250;BME280;68679;51.030;7.584;2023-11-21T08:17:18;98778.75;;;6.84;80.23
79250;BME280;68679;51.030;7.584;2023-11-21T08:19:45;98775.38;;;6.83;80.36
79250;BME280;68679;51.030;7.584;2023-11-21T08:22:14;98783.19;;;6.83;80.63
79250;BME280;68679;51.030;7.584;2023-11-21T08:24:41;98775.88;;;6.85;80.66
79250;BME280;68679;51.030;7.584;2023-11-21T08:27:06;98780.88;;;6.87;80.58
79250;BME280;68679;51.030;7.584;2023-11-21T08:29:32;98780.34;;;6.90;80.38
79250;BME280;68679;51.030;7.584;2023-11-21T08:31:57;98786.63;;;6.94;80.62
79250;BME280;68679;51.030;7.584;2023-11-21T08:34:22;98791.88;;;6.99;80.73
79250;BME280;68679;51.030;7.584;2023-11-21T08:36:48;98786.94;;;7.03;80.95
79250;BME280;68679;51.030;7.584;2023-11-21T08:39:16;98795.81;;;7.07;80.95
79250;BME280;68679;51.030;7.584;2023-11-21T08:41:44;98801.06;;;7.12;81.25
79250;BME280;68679;51.030;7.584;2023-11-21T08:44:09;98808.13;;;7.16;81.37
79250;BME280;68679;51.030;7.584;2023-11-21T08:46:34;98815.97;;;7.21;81.22
79250;BME280;68679;51.030;7.584;2023-11-21T08:49:01;98818.38;;;7.28;80.94
79250;BME280;68679;51.030;7.584;2023-11-21T08:51:27;98829.06;;;7.32;81.24
79250;BME280;68679;51.030;7.584;2023-11-21T08:53:52;98821.50;;;7.35;81.67
79250;BME280;68679;51.030;7.584;2023-11-21T08:56:18;98822.03;;;7.37;81.91
79250;BME280;68679;51.030;7.584;2023-11-21T08:58:45;98823.09;;;7.41;81.75
79250;BME280;68679;51.030;7.584;2023-11-21T09:01:12;98829.91;;;7.47;81.45
79250;BME280;68679;51.030;7.584;2023-11-21T09:03:37;98832.53;;;7.52;81.57
79250;BME280;68679;51.030;7.584;2023-11-21T09:06:02;98833.56;;;7.51;81.98
79250;BME280;68679;51.030;7.584;2023-11-21T09:08:28;98840.09;;;7.49;82.65
79250;BME280;68679;51.030;7.584;2023-11-21T09:10:54;98847.41;;;7.57;82.04
79250;BME280;68679;51.030;7.584;2023-11-21T09:13:20;98851.88;;;7.62;82.13
79250;BME280;68679;51.030;7.584;2023-11-21T09:15:45;98853.47;;;7.68;81.83
79250;BME280;68679;51.030;7.584;2023-11-21T09:18:13;98854.53;;;7.72;81.85
79250;BME280;68679;51.030;7.584;2023-11-21T09:20:38;98858.16;;;7.76;81.71
79250;BME280;68679;51.030;7.584;2023-11-21T09:23:04;98855.06;;;7.79;81.65
79250;BME280;68679;51.030;7.584;2023-11-21T09:25:29;98857.97;;;7.83;81.79
79250;BME280;68679;51.030;7.584;2023-11-21T09:27:55;98864.22;;;7.87;81.79
79250;BME280;68679;51.030;7.584;2023-11-21T09:30:21;98871.78;;;7.88;81.63
79250;BME280;68679;51.030;7.584;2023-11-21T09:32:46;98870.50;;;7.91;81.36
79250;BME280;68679;51.030;7.584;2023-11-21T09:35:12;98877.03;;;7.93;81.46
79250;BME280;68679;51.030;7.584;2023-11-21T09:37:39;98877.56;;;7.95;81.39
79250;BME280;68679;51.030;7.584;2023-11-21T09:40:05;98874.44;;;7.98;81.11
79250;BME280;68679;51.030;7.584;2023-11-21T09:43:27;98879.16;;;8.01;81.07
79250;BME280;68679;51.030;7.584;2023-11-21T09:45:39;98882.78;;;8.05;81.18
79250;BME280;68679;51.030;7.584;2023-11-21T09:48:05;98879.69;;;8.09;80.97
79250;BME280;68679;51.030;7.584;2023-11-21T09:50:32;98887.00;;;8.12;81.01
79250;BME280;68679;51.030;7.584;2023-11-21T09:55:39;98892.22;;;8.17;80.71
79250;BME280;68679;51.030;7.584;2023-11-21T09:58:07;98884.13;;;8.18;80.74
79250;BME280;68679;51.030;7.584;2023-11-21T10:00:38;98886.22;;;8.21;80.70
79250;BME280;68679;51.030;7.584;2023-11-21T10:03:04;98893.53;;;8.24;80.91
79250;BME280;68679;51.030;7.584;2023-11-21T10:05:30;98899.53;;;8.25;80.80
79250;BME280;68679;51.030;7.584;2023-11-21T10:07:59;98898.00;;;8.29;80.56
79250;BME280;68679;51.030;7.584;2023-11-21T10:10:25;98893.84;;;8.33;80.33
79250;BME280;68679;51.030;7.584;2023-11-21T10:12:54;98888.09;;;8.36;80.35
79250;BME280;68679;51.030;7.584;2023-11-21T10:15:24;98892.81;;;8.39;80.59
79250;BME280;68679;51.030;7.584;2023-11-21T10:17:52;98899.63;;;8.40;80.22
79250;BME280;68679;51.030;7.584;2023-11-21T10:20:23;98899.34;;;8.42;80.91
79250;BME280;68679;51.030;7.584;2023-11-21T10:22:49;98896.47;;;8.43;80.53
79250;BME280;68679;51.030;7.584;2023-11-21T10:25:14;98902.75;;;8.47;80.30
79250;BME280;68679;51.030;7.584;2023-11-21T10:27:40;98894.41;;;8.50;80.32
79250;BME280;68679;51.030;7.584;2023-11-21T10:30:10;98888.91;;;8.52;80.20
79250;BME280;68679;51.030;7.584;2023-11-21T10:32:38;98897.28;;;8.54;80.15
79250;BME280;68679;51.030;7.584;2023-11-21T10:35:04;98899.66;;;8.55;79.82
79250;BME280;68679;51.030;7.584;2023-11-21T10:37:38;98904.34;;;8.58;80.48
79250;BME280;68679;51.030;7.584;2023-11-21T10:40:07;98905.38;;;8.57;81.50
79250;BME280;68679;51.030;7.584;2023-11-21T10:42:33;98902.22;;;8.60;80.07
79250;BME280;68679;51.030;7.584;2023-11-21T10:44:58;98900.69;;;8.65;79.86
79250;BME280;68679;51.030;7.584;2023-11-21T10:47:24;98903.03;;;8.66;80.62
79250;BME280;68679;51.030;7.584;2023-11-21T10:49:51;98897.78;;;8.66;80.40
79250;BME280;68679;51.030;7.584;2023-11-21T10:52:21;98894.94;;;8.68;80.69
79250;BME280;68679;51.030;7.584;2023-11-21T10:54:47;98906.44;;;8.72;79.93
79250;BME280;68679;51.030;7.584;2023-11-21T10:57:17;98899.13;;;8.74;79.67
79250;BME280;68679;51.030;7.584;2023-11-21T10:59:47;98900.41;;;8.76;79.76
79250;BME280;68679;51.030;7.584;2023-11-21T11:02:24;98903.53;;;8.78;80.31
79250;BME280;68679;51.030;7.584;2023-11-21T11:04:54;98909.31;;;8.80;79.75
79250;BME280;68679;51.030;7.584;2023-11-21T11:07:26;98905.38;;;8.83;79.93
79250;BME280;68679;51.030;7.584;2023-11-21T11:09:53;98909.84;;;8.82;80.65
79250;BME280;68679;51.030;7.584;2023-11-21T11:12:19;98911.91;;;8.85;80.06
79250;BME280;68679;51.030;7.584;2023-11-21T11:14:45;98919.50;;;8.87;80.33
79250;BME280;68679;51.030;7.584;2023-11-21T11:17:13;98914.00;;;8.89;80.71
79250;BME280;68679;51.030;7.584;2023-11-21T11:19:39;98918.97;;;8.90;80.62
79250;BME280;68679;51.030;7.584;2023-11-21T11:25:35;98927.88;;;8.94;80.54
79250;BME280;68679;51.030;7.584;2023-11-21T11:28:07;98923.94;;;8.97;nan
79250;BME280;68679;51.030;7.584;2023-11-21T11:31:11;98924.19;;;9.00;80.07
79250;BME280;68679;51.030;7.584;2023-11-21T11:33:48;98917.91;;;9.01;80.58
79250;BME280;68679;51.030;7.584;2023-11-21T11:36:31;98919.22;;;9.04;81.41
79250;BME280;68679;51.030;7.584;2023-11-21T11:38:59;98920.25;;;9.03;80.07
79250;BME280;68679;51.030;7.584;2023-11-21T11:41:31;98926.81;;;9.05;81.26
79250;BME280;68679;51.030;7.584;2023-11-21T11:44:00;98919.47;;;9.02;81.16
79250;BME280;68679;51.030;7.584;2023-11-21T11:46:42;98922.88;;;9.08;80.80
79250;BME280;68679;51.030;7.584;2023-11-21T11:49:10;98921.59;;;9.10;80.25
79250;BME280;68679;51.030;7.584;2023-11-21T11:51:36;98917.13;;;9.11;80.97
79250;BME280;68679;51.030;7.584;2023-11-21T11:54:02;98917.66;;;9.13;80.64
79250;BME280;68679;51.030;7.584;2023-11-21T11:56:31;98915.31;;;9.17;80.32
79250;BME280;68679;51.030;7.584;2023-11-21T11:59:02;98914.25;;;9.18;80.03
79250;BME280;68679;51.030;7.584;2023-11-21T12:01:29;98921.56;;;9.21;80.26
79250;BME280;68679;51.030;7.584;2023-11-21T12:06:45;98921.31;;;9.22;80.98
79250;BME280;68679;51.030;7.584;2023-11-21T12:09:21;98923.94;;;9.22;82.38
79250;BME280;68679;51.030;7.584;2023-11-21T12:11:48;98928.63;;;9.25;80.85
79250;BME280;68679;51.030;7.584;2023-11-21T12:14:15;98935.97;;;9.23;82.13
79250;BME280;68679;51.030;7.584;2023-11-21T12:16:40;98934.63;;;9.21;82.57
79250;BME280;68679;51.030;7.584;2023-11-21T12:19:08;98934.41;;;9.22;82.09
79250;BME280;68679;51.030;7.584;2023-11-21T12:21:33;98932.00;;;9.26;81.24
79250;BME280;68679;51.030;7.584;2023-11-21T12:23:59;98942.47;;;9.31;81.17
79250;BME280;68679;51.030;7.584;2023-11-21T12:26:25;98939.59;;;9.32;81.15
79250;BME280;68679;51.030;7.584;2023-11-21T12:28:53;98939.88;;;9.31;81.53
79250;BME280;68679;51.030;7.584;2023-11-21T12:31:24;98943.25;;;9.31;82.14
79250;BME280;68679;51.030;7.584;2023-11-21T12:33:50;98940.66;;;9.31;82.26
79250;BME280;68679;51.030;7.584;2023-11-21T12:36:16;98941.16;;;9.33;81.37
79250;BME280;68679;51.030;7.584;2023-11-21T12:38:42;98952.16;;;9.35;81.88
79250;BME280;68679;51.030;7.584;2023-11-21T12:41:08;98945.09;;;9.36;81.58
79250;BME280;68679;51.030;7.584;2023-11-21T12:43:35;98946.66;;;9.37;81.33
79250;BME280;68679;51.030;7.584;2023-11-21T12:46:08;98953.97;;;9.40;81.75
79250;BME280;68679;51.030;7.584;2023-11-21T12:48:38;98952.66;;;9.43;81.64
79250;BME280;68679;51.030;7.584;2023-11-21T12:51:07;98958.41;;;9.45;81.28
79250;BME280;68679;51.030;7.584;2023-11-21T12:53:34;98956.06;;;9.43;81.05
79250;BME280;68679;51.030;7.584;2023-11-21T12:56:06;98958.41;;;9.39;82.00
79250;BME280;68679;51.030;7.584;2023-11-21T12:58:34;98957.91;;;9.37;81.99
79250;BME280;68679;51.030;7.584;2023-11-21T13:01:00;98960.00;;;9.35;82.66
79250;BME280;68679;51.030;7.584;2023-11-21T13:03:28;98965.75;;;9.37;82.21
79250;BME280;68679;51.030;7.584;2023-11-21T13:05:55;98958.16;;;9.41;81.65
79250;BME280;68679;51.030;7.584;2023-11-21T13:08:23;98962.34;;;9.42;81.96
79250;BME280;68679;51.030;7.584;2023-11-21T13:10:52;98957.63;;;9.44;81.74
79250;BME280;68679;51.030;7.584;2023-11-21T13:13:19;98962.59;;;9.46;81.65
79250;BME280;68679;51.030;7.584;2023-11-21T13:15:52;98957.13;;;9.47;81.74